createdAt,value
2022-12-05T00:01:40.934Z,4.15
2022-12-05T00:04:10.482Z,4.13
2022-12-05T00:06:38.231Z,4.11
2022-12-05T00:09:06.487Z,4.12
2022-12-05T00:11:35.737Z,4.13
2022-12-05T00:14:03.056Z,4.05
2022-12-05T00:16:32.040Z,4.13
2022-12-05T00:19:02.433Z,4.16
2022-12-05T00:21:31.205Z,4.09
2022-12-05T00:23:59.311Z,4.15
2022-12-05T00:26:26.562Z,4.24
2022-12-05T00:28:53.828Z,4.20
2022-12-05T00:31:22.860Z,4.25
2022-12-05T00:33:50.168Z,4.29
2022-12-05T00:36:25.215Z,4.35
2022-12-05T00:38:52.479Z,4.34
2022-12-05T00:41:21.732Z,4.42
2022-12-05T00:43:48.223Z,4.40
2022-12-05T00:46:17.937Z,4.46
2022-12-05T00:48:44.811Z,4.51
2022-12-05T00:51:21.238Z,4.51
2022-12-05T00:53:47.977Z,4.56
2022-12-05T00:56:17.557Z,4.58
2022-12-05T00:58:44.136Z,4.60
2022-12-05T01:01:13.734Z,4.66
2022-12-05T01:03:40.726Z,4.60
2022-12-05T01:06:08.523Z,4.67
2022-12-05T01:08:35.511Z,4.71
2022-12-05T01:11:03.442Z,4.70
2022-12-05T01:13:30.747Z,4.69
2022-12-05T01:15:57.764Z,4.75
2022-12-05T01:18:25.631Z,4.70
2022-12-05T01:20:52.840Z,4.71
2022-12-05T01:23:20.176Z,4.68
2022-12-05T01:25:49.133Z,4.66
2022-12-05T01:28:16.480Z,4.69
2022-12-05T01:30:45.785Z,4.66
2022-12-05T01:33:13.173Z,4.64
2022-12-05T01:35:40.860Z,4.67
2022-12-05T01:38:08.439Z,4.61
2022-12-05T01:40:38.856Z,4.69
2022-12-05T01:43:14.250Z,4.68
2022-12-05T01:45:42.990Z,4.76
2022-12-05T01:48:18.943Z,4.73
2022-12-05T01:50:47.570Z,4.66
2022-12-05T01:53:14.928Z,4.74
2022-12-05T01:55:41.440Z,4.72
2022-12-05T01:58:09.879Z,4.77
2022-12-05T02:00:36.500Z,4.77
2022-12-05T02:03:08.275Z,4.76
2022-12-05T02:05:36.583Z,4.85
2022-12-05T02:08:09.171Z,4.83
2022-12-05T02:10:38.916Z,4.83
2022-12-05T02:13:31.312Z,4.89
2022-12-05T02:16:09.537Z,4.83
2022-12-05T02:18:49.347Z,4.76
2022-12-05T02:21:46.562Z,4.78
2022-12-05T02:24:28.363Z,4.77
2022-12-05T02:27:19.860Z,4.79
2022-12-05T02:29:53.832Z,4.82
2022-12-05T02:32:26.337Z,4.77
2022-12-05T02:35:30.061Z,4.79
2022-12-05T02:38:13.385Z,4.75
2022-12-05T02:40:47.689Z,4.74
2022-12-05T02:43:20.786Z,4.73
2022-12-05T02:45:52.042Z,4.75
2022-12-05T02:48:20.583Z,4.76
2022-12-05T02:50:50.317Z,4.75
2022-12-05T02:53:21.004Z,4.78
2022-12-05T02:55:48.198Z,4.79
2022-12-05T02:58:21.078Z,4.78
2022-12-05T03:00:50.207Z,4.83
2022-12-05T03:03:19.314Z,4.75
2022-12-05T03:05:59.095Z,4.81
2022-12-05T03:08:34.393Z,4.83
2022-12-05T03:11:03.030Z,4.81
2022-12-05T03:13:39.214Z,4.85
2022-12-05T03:16:12.808Z,4.83
2022-12-05T03:18:46.649Z,4.77
2022-12-05T03:21:22.340Z,4.82
2022-12-05T03:23:58.171Z,4.84
2022-12-05T03:27:01.903Z,4.83
2022-12-05T03:29:37.219Z,4.88
2022-12-05T03:32:24.742Z,4.84
2022-12-05T03:35:17.860Z,4.85
2022-12-05T03:37:55.602Z,4.82
2022-12-05T03:40:32.005Z,4.86
2022-12-05T03:43:09.082Z,4.84
2022-12-05T03:45:49.279Z,4.83
2022-12-05T03:48:28.036Z,4.84
2022-12-05T03:50:56.590Z,4.89
2022-12-05T03:53:29.577Z,4.83
2022-12-05T03:56:05.603Z,4.90
2022-12-05T03:58:57.078Z,4.87
2022-12-05T04:01:28.205Z,4.93
2022-12-05T04:04:03.255Z,4.82
2022-12-05T04:06:35.863Z,4.80
2022-12-05T04:09:28.117Z,4.83
2022-12-05T04:12:01.643Z,4.97
2022-12-05T04:14:57.540Z,4.84
2022-12-05T04:17:40.479Z,4.83
2022-12-05T04:20:44.563Z,4.93
2022-12-05T04:23:11.380Z,4.84
2022-12-05T04:26:05.727Z,4.87
2022-12-05T04:28:50.512Z,4.84
2022-12-05T04:31:23.180Z,4.83
2022-12-05T04:34:05.203Z,4.85
2022-12-05T04:36:36.193Z,4.82
2022-12-05T04:39:17.472Z,4.86
2022-12-05T04:41:52.002Z,4.85
2022-12-05T04:44:24.544Z,4.87
2022-12-05T04:46:55.106Z,4.87
2022-12-05T04:49:25.600Z,4.87
2022-12-05T04:51:56.990Z,4.87
2022-12-05T04:54:31.049Z,4.93
2022-12-05T04:57:08.050Z,4.90
2022-12-05T04:59:35.085Z,4.82
2022-12-05T05:02:08.108Z,4.87
2022-12-05T05:04:38.543Z,4.98
2022-12-05T05:07:13.210Z,4.91
2022-12-05T05:09:40.327Z,4.92
2022-12-05T05:12:07.732Z,4.95
2022-12-05T05:14:34.316Z,4.95
2022-12-05T05:17:00.793Z,4.93
2022-12-05T05:19:27.262Z,4.96
2022-12-05T05:21:53.824Z,4.92
2022-12-05T05:24:21.854Z,4.95
2022-12-05T05:26:52.452Z,4.94
2022-12-05T05:29:21.986Z,4.99
2022-12-05T05:31:48.442Z,4.98
2022-12-05T05:34:16.136Z,4.93
2022-12-05T05:36:43.542Z,4.99
2022-12-05T05:39:13.252Z,4.97
2022-12-05T05:41:39.651Z,4.96
2022-12-05T05:44:06.355Z,4.95
2022-12-05T05:46:34.976Z,5.00
2022-12-05T05:49:02.199Z,4.96
2022-12-05T05:51:30.227Z,4.82
2022-12-05T05:53:58.124Z,4.94
2022-12-05T05:56:25.069Z,4.87
2022-12-05T05:59:00.497Z,4.95
2022-12-05T06:01:28.091Z,4.99
2022-12-05T06:03:54.672Z,5.03
2022-12-05T06:06:22.394Z,4.98
2022-12-05T06:08:49.110Z,4.94
2022-12-05T06:11:24.962Z,4.98
2022-12-05T06:13:53.687Z,5.04
2022-12-05T06:16:21.224Z,5.03
2022-12-05T06:18:49.202Z,5.05
2022-12-05T06:21:16.550Z,5.01
2022-12-05T06:23:43.636Z,5.07
2022-12-05T06:26:12.875Z,5.03
2022-12-05T06:28:40.100Z,5.03
2022-12-05T06:31:11.290Z,5.05
2022-12-05T06:33:38.171Z,5.01
2022-12-05T06:36:07.811Z,4.98
2022-12-05T06:38:36.907Z,5.04
2022-12-05T06:41:09.218Z,5.05
2022-12-05T06:43:35.602Z,5.02
2022-12-05T06:46:06.831Z,5.05
2022-12-05T06:48:33.353Z,5.03
2022-12-05T06:51:00.379Z,5.04
2022-12-05T06:53:27.207Z,5.08
2022-12-05T06:56:02.653Z,5.09
2022-12-05T06:58:29.704Z,5.02
2022-12-05T07:01:14.730Z,5.09
2022-12-05T07:03:41.383Z,5.04
2022-12-05T07:06:08.226Z,5.06
2022-12-05T07:08:34.925Z,5.05
2022-12-05T07:11:02.733Z,5.00
2022-12-05T07:13:29.211Z,5.06
2022-12-05T07:15:55.768Z,5.04
2022-12-05T07:18:22.336Z,4.98
2022-12-05T07:21:15.724Z,5.03
2022-12-05T07:23:44.382Z,5.03
2022-12-05T07:26:17.069Z,5.05
2022-12-05T07:28:43.560Z,5.05
2022-12-05T07:31:14.031Z,5.09
2022-12-05T07:33:40.641Z,5.08
2022-12-05T07:36:15.852Z,5.07
2022-12-05T07:38:43.352Z,5.05
2022-12-05T07:41:14.451Z,5.05
2022-12-05T07:43:41.945Z,4.97
2022-12-05T07:46:11.413Z,4.99
2022-12-05T07:48:38.830Z,4.96
2022-12-05T07:51:07.256Z,4.99
2022-12-05T07:53:34.567Z,5.03
2022-12-05T07:56:03.211Z,4.95
2022-12-05T07:58:30.634Z,5.01
2022-12-05T08:00:58.873Z,5.00
2022-12-05T08:03:25.316Z,5.08
2022-12-05T08:05:51.726Z,5.08
2022-12-05T08:08:18.178Z,5.06
2022-12-05T08:10:44.640Z,5.01
2022-12-05T08:13:11.011Z,5.02
2022-12-05T08:15:37.400Z,5.02
2022-12-05T08:18:03.904Z,4.99
2022-12-05T08:20:30.639Z,5.04
2022-12-05T08:22:57.126Z,5.08
2022-12-05T08:25:23.654Z,5.11
2022-12-05T08:27:50.075Z,5.00
2022-12-05T08:30:16.635Z,5.05
2022-12-05T08:32:43.026Z,5.00
2022-12-05T08:35:10.092Z,4.98
2022-12-05T08:37:36.597Z,5.03
2022-12-05T08:40:03.995Z,4.97
2022-12-05T08:42:30.417Z,4.98
2022-12-05T08:44:57.127Z,5.03
2022-12-05T08:47:23.734Z,4.99
2022-12-05T08:49:50.129Z,5.05
2022-12-05T08:52:16.631Z,5.04
2022-12-05T08:54:43.011Z,4.98
2022-12-05T08:57:09.408Z,5.00
2022-12-05T08:59:35.799Z,4.98
2022-12-05T09:02:02.234Z,4.90
2022-12-05T09:04:28.826Z,4.96
2022-12-05T09:06:55.287Z,4.93
2022-12-05T09:09:21.812Z,5.00
2022-12-05T09:11:50.804Z,5.02
2022-12-05T09:14:17.992Z,4.99
2022-12-05T09:16:46.373Z,4.95
2022-12-05T09:19:24.884Z,4.93
2022-12-05T09:21:51.628Z,4.99
2022-12-05T09:24:18.097Z,4.95
2022-12-05T09:26:44.985Z,4.99
2022-12-05T09:29:17.734Z,5.00
2022-12-05T09:31:49.867Z,4.99
2022-12-05T09:34:18.179Z,4.99
2022-12-05T09:36:45.139Z,4.94
2022-12-05T09:39:11.618Z,4.96
2022-12-05T09:41:59.579Z,4.91
2022-12-05T09:44:50.253Z,4.93
2022-12-05T09:47:19.726Z,4.97
2022-12-05T09:50:01.416Z,4.99
2022-12-05T09:52:33.506Z,4.94
2022-12-05T09:55:10.602Z,4.97
2022-12-05T09:57:43.292Z,4.99
2022-12-05T10:00:10.815Z,5.00
2022-12-05T10:03:02.117Z,5.03
2022-12-05T10:05:43.881Z,5.04
2022-12-05T10:08:25.662Z,5.06
2022-12-05T10:11:10.317Z,5.00
2022-12-05T10:13:55.604Z,5.01
2022-12-05T10:16:31.251Z,5.04
2022-12-05T10:19:12.214Z,5.07
2022-12-05T10:21:56.792Z,5.09
2022-12-05T10:24:31.806Z,5.04
2022-12-05T10:27:06.777Z,5.04
2022-12-05T10:29:45.459Z,5.04
2022-12-05T10:32:33.347Z,5.12
2022-12-05T10:35:14.191Z,5.10
2022-12-05T10:37:45.159Z,5.12
2022-12-05T10:40:12.910Z,5.11
2022-12-05T10:42:39.472Z,5.11
2022-12-05T10:45:13.550Z,5.16
2022-12-05T10:47:40.547Z,5.07
2022-12-05T10:50:20.418Z,5.12
2022-12-05T10:52:47.750Z,5.09
2022-12-05T10:55:18.032Z,5.12
2022-12-05T10:57:50.631Z,5.12
2022-12-05T11:00:22.134Z,5.14
2022-12-05T11:02:49.667Z,5.10
2022-12-05T11:05:27.161Z,5.20
2022-12-05T11:07:54.726Z,5.16
2022-12-05T11:10:26.436Z,5.12
2022-12-05T11:12:57.578Z,5.10
2022-12-05T11:15:29.425Z,5.10
2022-12-05T11:17:58.544Z,5.15
2022-12-05T11:20:25.056Z,5.13
2022-12-05T11:22:53.640Z,5.07
2022-12-05T11:25:30.671Z,5.11
2022-12-05T11:28:01.435Z,5.18
2022-12-05T11:30:29.321Z,5.13
2022-12-05T11:33:20.009Z,5.14
2022-12-05T11:35:48.007Z,5.15
2022-12-05T11:38:17.147Z,5.15
2022-12-05T11:41:03.771Z,5.08
2022-12-05T11:43:50.191Z,5.05
2022-12-05T11:46:35.677Z,5.11
2022-12-05T11:49:28.227Z,5.12
2022-12-05T11:52:28.840Z,5.05
2022-12-05T11:55:20.018Z,5.05
2022-12-05T11:57:56.124Z,5.12
2022-12-05T12:00:22.720Z,5.09
2022-12-05T12:03:04.572Z,5.16
2022-12-05T12:05:55.740Z,5.10
2022-12-05T12:08:28.950Z,5.14
2022-12-05T12:11:13.807Z,5.15
2022-12-05T12:14:07.963Z,5.12
2022-12-05T12:16:54.925Z,5.05
2022-12-05T12:19:24.203Z,5.06
2022-12-05T12:22:15.982Z,5.06
2022-12-05T12:25:12.198Z,5.12
2022-12-05T12:27:52.539Z,5.11
2022-12-05T12:30:24.832Z,5.06
2022-12-05T12:33:03.314Z,5.04
2022-12-05T12:35:51.254Z,5.12
2022-12-05T12:38:51.108Z,5.07
2022-12-05T12:41:42.905Z,5.18
2022-12-05T12:44:36.500Z,5.18
2022-12-05T12:47:21.600Z,5.18
2022-12-05T12:50:07.734Z,5.10
2022-12-05T12:52:55.461Z,5.15
2022-12-05T12:55:41.560Z,5.15
2022-12-05T12:58:40.252Z,5.17
2022-12-05T13:01:16.170Z,5.12
2022-12-05T13:03:51.962Z,5.12
2022-12-05T13:06:22.858Z,5.23
2022-12-05T13:09:02.112Z,5.10
2022-12-05T13:11:35.099Z,5.16
2022-12-05T13:14:02.302Z,5.16
2022-12-05T13:16:34.314Z,5.17
2022-12-05T13:19:02.521Z,5.22
2022-12-05T13:21:29.973Z,5.19
2022-12-05T13:24:03.376Z,5.23
2022-12-05T13:26:36.942Z,5.16
2022-12-05T13:29:04.728Z,5.19
2022-12-05T13:31:41.106Z,5.25
2022-12-05T13:34:27.814Z,5.22
2022-12-05T13:37:14.122Z,5.19
2022-12-05T13:39:59.311Z,5.23
2022-12-05T13:42:30.350Z,5.25
2022-12-05T13:45:05.966Z,5.23
2022-12-05T13:47:40.386Z,5.17
2022-12-05T13:50:07.244Z,5.20
2022-12-05T13:53:17.732Z,5.24
2022-12-05T13:56:01.311Z,5.21
2022-12-05T13:58:42.651Z,5.16
2022-12-05T14:01:39.358Z,5.19
2022-12-05T14:04:42.769Z,5.19
2022-12-05T14:07:10.745Z,5.23
2022-12-05T14:09:53.085Z,5.22
2022-12-05T14:12:29.334Z,5.19
2022-12-05T14:14:55.667Z,5.14
2022-12-05T14:17:29.752Z,5.14
2022-12-05T14:20:33.730Z,5.14
2022-12-05T14:23:00.163Z,5.12
2022-12-05T14:25:58.134Z,5.25
2022-12-05T14:29:03.411Z,5.12
2022-12-05T14:31:45.116Z,5.06
2022-12-05T14:34:24.959Z,5.05
2022-12-05T14:36:52.966Z,5.12
2022-12-05T14:39:28.276Z,5.07
2022-12-05T14:42:00.440Z,5.15
2022-12-05T14:44:32.125Z,5.10
2022-12-05T14:47:03.383Z,5.09
2022-12-05T14:49:50.138Z,5.08
2022-12-05T14:52:21.986Z,5.08
2022-12-05T14:54:51.907Z,5.07
2022-12-05T14:57:19.520Z,5.06
2022-12-05T15:00:01.683Z,5.04
2022-12-05T15:02:36.012Z,5.02
2022-12-05T15:05:17.981Z,5.05
2022-12-05T15:07:46.498Z,5.04
2022-12-05T15:10:36.654Z,5.02
2022-12-05T15:13:22.951Z,5.00
2022-12-05T15:16:02.356Z,4.99
2022-12-05T15:18:38.661Z,4.93
2022-12-05T15:21:26.787Z,4.94
2022-12-05T15:23:59.312Z,4.93
2022-12-05T15:26:49.922Z,4.97
2022-12-05T15:29:16.257Z,4.90
2022-12-05T15:31:48.782Z,4.99
2022-12-05T15:34:24.666Z,4.92
2022-12-05T15:37:08.852Z,4.95
2022-12-05T15:40:01.606Z,4.97
2022-12-05T15:42:40.984Z,5.02
2022-12-05T15:45:13.642Z,4.97
2022-12-05T15:47:40.904Z,5.04
2022-12-05T15:50:14.208Z,4.97
2022-12-05T15:52:46.754Z,4.99
2022-12-05T15:55:25.971Z,4.97
2022-12-05T15:58:13.215Z,4.90
2022-12-05T16:00:45.976Z,4.99
2022-12-05T16:03:16.906Z,4.98
2022-12-05T16:05:55.364Z,4.97
2022-12-05T16:08:24.499Z,4.92
2022-12-05T16:10:51.627Z,4.94
2022-12-05T16:13:20.932Z,4.96
2022-12-05T16:15:52.750Z,4.93
2022-12-05T16:18:31.441Z,4.90
2022-12-05T16:20:58.177Z,4.94
2022-12-05T16:23:30.229Z,4.92
2022-12-05T16:26:19.601Z,4.98
2022-12-05T16:28:59.946Z,4.94
2022-12-05T16:31:26.582Z,4.93
2022-12-05T16:34:04.776Z,4.97
2022-12-05T16:36:31.857Z,4.93
2022-12-05T16:39:04.094Z,4.86
2022-12-05T16:41:35.244Z,4.85
2022-12-05T16:44:01.980Z,4.91
2022-12-05T16:46:42.001Z,4.83
2022-12-05T16:49:21.182Z,4.92
2022-12-05T16:52:01.031Z,4.87
2022-12-05T16:54:27.908Z,4.84
2022-12-05T16:56:54.434Z,4.81
2022-12-05T16:59:24.636Z,4.86
2022-12-05T17:01:51.199Z,4.86
2022-12-05T17:04:17.737Z,4.86
2022-12-05T17:06:44.293Z,4.81
2022-12-05T17:09:10.685Z,4.84
2022-12-05T17:11:41.029Z,4.81
2022-12-05T17:14:12.871Z,4.81
2022-12-05T17:16:39.428Z,4.88
2022-12-05T17:19:05.838Z,4.83
2022-12-05T17:21:33.940Z,4.86
2022-12-05T17:24:01.172Z,4.83
2022-12-05T17:26:27.588Z,4.80
2022-12-05T17:28:54.023Z,4.81
2022-12-05T17:31:25.403Z,4.83
2022-12-05T17:33:54.039Z,4.89
2022-12-05T17:36:21.143Z,4.83
2022-12-05T17:38:48.026Z,4.85
2022-12-05T17:41:17.448Z,4.89
2022-12-05T17:43:45.912Z,4.85
2022-12-05T17:46:19.029Z,4.84
2022-12-05T17:48:46.837Z,4.90
2022-12-05T17:51:14.599Z,4.87
2022-12-05T17:53:42.708Z,4.90
2022-12-05T17:56:09.252Z,4.89
2022-12-05T17:58:35.881Z,4.88
2022-12-05T18:01:02.792Z,4.85
2022-12-05T18:03:29.976Z,4.85
2022-12-05T18:05:56.462Z,4.87
2022-12-05T18:08:24.140Z,4.93
2022-12-05T18:10:51.261Z,4.87
2022-12-05T18:13:18.289Z,4.88
2022-12-05T18:15:48.007Z,4.86
2022-12-05T18:18:16.285Z,4.86
2022-12-05T18:20:43.079Z,4.85
2022-12-05T18:23:09.908Z,4.89
2022-12-05T18:25:36.377Z,4.83
2022-12-05T18:28:02.823Z,4.89
2022-12-05T18:30:30.829Z,4.90
2022-12-05T18:32:57.232Z,4.89
2022-12-05T18:35:40.737Z,4.93
2022-12-05T18:38:09.804Z,4.93
2022-12-05T18:40:36.251Z,4.94
2022-12-05T18:43:03.041Z,4.90
2022-12-05T18:45:29.539Z,4.90
2022-12-05T18:48:04.597Z,4.89
2022-12-05T18:50:42.423Z,4.92
2022-12-05T18:53:09.238Z,4.88
2022-12-05T18:55:58.396Z,4.93
2022-12-05T18:58:22.266Z,4.84
2022-12-05T19:00:48.749Z,4.84
2022-12-05T19:03:15.151Z,4.85
2022-12-05T19:05:43.317Z,4.87
2022-12-05T19:08:09.756Z,4.89
2022-12-05T19:10:36.489Z,4.86
2022-12-05T19:13:02.924Z,4.82
2022-12-05T19:15:29.310Z,4.84
2022-12-05T19:17:55.712Z,4.89
2022-12-05T19:20:22.152Z,4.87
2022-12-05T19:22:48.668Z,4.87
2022-12-05T19:25:15.169Z,4.83
2022-12-05T19:27:41.590Z,4.84
2022-12-05T19:30:10.303Z,4.85
2022-12-05T19:32:40.402Z,4.89
2022-12-05T19:35:07.406Z,4.89
2022-12-05T19:37:34.281Z,4.88
2022-12-05T19:40:00.993Z,4.88
2022-12-05T19:42:29.338Z,4.95
2022-12-05T19:44:55.726Z,4.98
2022-12-05T19:47:22.547Z,4.98
2022-12-05T19:49:49.114Z,4.96
2022-12-05T19:52:17.959Z,4.92
2022-12-05T19:54:45.162Z,4.95
2022-12-05T19:57:12.004Z,4.87
2022-12-05T19:59:38.552Z,4.93
2022-12-05T20:02:04.997Z,4.85
2022-12-05T20:04:31.566Z,4.95
2022-12-05T20:06:57.989Z,5.00
2022-12-05T20:09:24.418Z,5.03
2022-12-05T20:11:55.052Z,4.96
2022-12-05T20:14:23.100Z,4.98
2022-12-05T20:16:49.568Z,4.94
2022-12-05T20:19:16.229Z,4.89
2022-12-05T20:21:44.420Z,4.95
2022-12-05T20:24:11.456Z,4.88
2022-12-05T20:26:40.971Z,4.89
2022-12-05T20:29:07.919Z,4.94
2022-12-05T20:31:40.158Z,4.96
2022-12-05T20:34:09.081Z,4.95
2022-12-05T20:36:35.555Z,4.92
2022-12-05T20:39:07.748Z,4.92
2022-12-05T20:41:34.870Z,4.93
2022-12-05T20:44:04.137Z,4.91
2022-12-05T20:46:31.704Z,5.03
2022-12-05T20:48:59.336Z,5.11
2022-12-05T20:51:27.872Z,4.97
2022-12-05T20:53:54.736Z,4.95
2022-12-05T20:56:26.321Z,4.88
2022-12-05T20:58:55.739Z,4.94
2022-12-05T21:01:25.632Z,4.95
2022-12-05T21:03:52.976Z,4.92
2022-12-05T21:06:26.151Z,4.99
2022-12-05T21:08:54.368Z,4.96
2022-12-05T21:11:21.903Z,4.99
2022-12-05T21:13:48.307Z,4.95
2022-12-05T21:16:20.203Z,4.97
2022-12-05T21:18:47.620Z,4.92
2022-12-05T21:21:25.552Z,4.96
2022-12-05T21:24:00.539Z,4.97
2022-12-05T21:26:29.444Z,5.04
2022-12-05T21:28:56.575Z,5.07
2022-12-05T21:31:26.282Z,5.03
2022-12-05T21:33:55.815Z,5.02
2022-12-05T21:36:23.587Z,4.98
2022-12-05T21:38:55.707Z,5.04
2022-12-05T21:41:23.798Z,5.03
2022-12-05T21:43:54.330Z,5.01
2022-12-05T21:46:22.113Z,5.01
2022-12-05T21:48:48.603Z,5.12
2022-12-05T21:51:15.075Z,5.06
2022-12-05T21:53:41.615Z,4.97
2022-12-05T21:56:11.528Z,5.02
2022-12-05T21:58:42.272Z,5.06
2022-12-05T22:01:10.547Z,5.04
2022-12-05T22:03:37.070Z,5.02
2022-12-05T22:06:06.284Z,5.07
2022-12-05T22:08:33.896Z,5.09
2022-12-05T22:11:21.252Z,5.06
2022-12-05T22:13:49.019Z,5.02
2022-12-05T22:16:16.579Z,4.99
2022-12-05T22:18:43.148Z,4.98
2022-12-05T22:21:13.943Z,5.00
2022-12-05T22:23:40.352Z,5.02
2022-12-05T22:26:08.268Z,5.02
2022-12-05T22:28:35.836Z,4.94
2022-12-05T22:31:05.527Z,5.00
2022-12-05T22:33:32.500Z,5.12
2022-12-05T22:36:00.525Z,5.01
2022-12-05T22:38:29.289Z,5.06
2022-12-05T22:40:57.739Z,5.03
2022-12-05T22:43:25.578Z,5.08
2022-12-05T22:45:52.293Z,5.03
2022-12-05T22:48:18.759Z,5.03
2022-12-05T22:50:54.563Z,5.10
2022-12-05T22:53:23.318Z,5.05
2022-12-05T22:55:50.665Z,5.14
2022-12-05T22:58:17.883Z,5.14
2022-12-05T23:00:45.003Z,5.09
2022-12-05T23:03:11.591Z,5.04
2022-12-05T23:05:45.243Z,5.11
2022-12-05T23:08:12.479Z,5.04
2022-12-05T23:10:39.869Z,5.06
2022-12-05T23:13:07.215Z,5.06
2022-12-05T23:15:34.501Z,5.06
2022-12-05T23:18:00.906Z,5.06
2022-12-05T23:20:27.332Z,5.09
2022-12-05T23:22:53.724Z,5.02
2022-12-05T23:25:20.119Z,5.06
2022-12-05T23:27:46.500Z,5.03
2022-12-05T23:30:13.528Z,5.05
2022-12-05T23:32:39.924Z,5.05
2022-12-05T23:35:06.775Z,5.14
2022-12-05T23:37:33.155Z,5.11
2022-12-05T23:39:59.817Z,5.15
2022-12-05T23:42:26.507Z,5.06
2022-12-05T23:44:52.909Z,5.16
2022-12-05T23:47:19.359Z,5.13
2022-12-05T23:49:45.837Z,5.10
2022-12-05T23:52:12.263Z,5.08
2022-12-05T23:54:38.655Z,5.10
2022-12-05T23:57:05.691Z,5.13
2022-12-05T23:59:32.085Z,5.13
